sensor_id;sensor_type;location;lat;lon;timestamp;P1;durP1;ratioP1;P2;durP2;ratioP2
75926;SDS011;64605;48.296;16.416;2022-11-18T00:01:32;31.00;;;22.88;;
75926;SDS011;64605;48.296;16.416;2022-11-18T00:03:58;28.00;;;22.95;;
75926;SDS011;64605;48.296;16.416;2022-11-18T00:06:25;30.05;;;22.83;;
75926;SDS011;64605;48.296;16.416;2022-11-18T00:08:52;28.40;;;21.70;;
75926;SDS011;64605;48.296;16.416;2022-11-18T00:11:20;32.70;;;24.08;;
75926;SDS011;64605;48.296;16.416;2022-11-18T00:14:06;30.45;;;24.23;;
75926;SDS011;64605;48.296;16.416;2022-11-18T00:19:25;30.45;;;22.23;;
75926;SDS011;64605;48.296;16.416;2022-11-18T00:21:53;30.58;;;23.13;;
75926;SDS011;64605;48.296;16.416;2022-11-18T00:24:19;34.25;;;24.30;;
75926;SDS011;64605;48.296;16.416;2022-11-18T00:26:45;30.92;;;23.02;;
75926;SDS011;64605;48.296;16.416;2022-11-18T00:29:12;31.35;;;23.17;;
75926;SDS011;64605;48.296;16.416;2022-11-18T00:31:38;31.98;;;22.58;;
75926;SDS011;64605;48.296;16.416;2022-11-18T00:34:04;33.03;;;23.70;;
75926;SDS011;64605;48.296;16.416;2022-11-18T00:36:29;35.08;;;24.83;;
75926;SDS011;64605;48.296;16.416;2022-11-18T00:38:55;34.13;;;23.95;;
75926;SDS011;64605;48.296;16.416;2022-11-18T00:41:21;30.80;;;23.13;;
75926;SDS011;64605;48.296;16.416;2022-11-18T00:43:47;33.55;;;23.10;;
75926;SDS011;64605;48.296;16.416;2022-11-18T00:46:12;38.95;;;26.48;;
75926;SDS011;64605;48.296;16.416;2022-11-18T00:48:38;34.97;;;23.63;;
75926;SDS011;64605;48.296;16.416;2022-11-18T00:51:06;32.38;;;24.02;;
75926;SDS011;64605;48.296;16.416;2022-11-18T00:53:34;33.20;;;23.65;;
75926;SDS011;64605;48.296;16.416;2022-11-18T00:56:00;41.15;;;25.33;;
75926;SDS011;64605;48.296;16.416;2022-11-18T00:58:25;35.75;;;25.20;;
75926;SDS011;64605;48.296;16.416;2022-11-18T01:00:51;41.13;;;24.10;;
75926;SDS011;64605;48.296;16.416;2022-11-18T01:03:17;42.65;;;25.58;;
75926;SDS011;64605;48.296;16.416;2022-11-18T01:05:44;40.65;;;24.83;;
75926;SDS011;64605;48.296;16.416;2022-11-18T01:08:10;45.42;;;27.73;;
75926;SDS011;64605;48.296;16.416;2022-11-18T01:10:37;49.40;;;26.85;;
75926;SDS011;64605;48.296;16.416;2022-11-18T01:13:04;47.35;;;28.10;;
75926;SDS011;64605;48.296;16.416;2022-11-18T01:18:17;55.58;;;29.77;;
75926;SDS011;64605;48.296;16.416;2022-11-18T01:20:45;50.28;;;28.45;;
75926;SDS011;64605;48.296;16.416;2022-11-18T01:23:11;51.53;;;26.52;;
75926;SDS011;64605;48.296;16.416;2022-11-18T01:25:38;46.70;;;28.38;;
75926;SDS011;64605;48.296;16.416;2022-11-18T01:28:05;52.35;;;30.25;;
75926;SDS011;64605;48.296;16.416;2022-11-18T01:30:32;55.55;;;29.80;;
75926;SDS011;64605;48.296;16.416;2022-11-18T01:33:00;44.58;;;25.88;;
75926;SDS011;64605;48.296;16.416;2022-11-18T01:35:26;49.67;;;27.70;;
75926;SDS011;64605;48.296;16.416;2022-11-18T01:37:52;54.55;;;29.80;;
75926;SDS011;64605;48.296;16.416;2022-11-18T01:40:17;43.40;;;26.25;;
75926;SDS011;64605;48.296;16.416;2022-11-18T01:42:43;50.20;;;28.38;;
75926;SDS011;64605;48.296;16.416;2022-11-18T01:45:14;46.33;;;26.85;;
75926;SDS011;64605;48.296;16.416;2022-11-18T01:47:49;52.72;;;30.05;;
75926;SDS011;64605;48.296;16.416;2022-11-18T01:50:20;46.25;;;26.58;;
75926;SDS011;64605;48.296;16.416;2022-11-18T01:52:47;45.38;;;27.92;;
75926;SDS011;64605;48.296;16.416;2022-11-18T01:55:15;46.40;;;28.02;;
75926;SDS011;64605;48.296;16.416;2022-11-18T01:57:47;51.40;;;28.58;;
75926;SDS011;64605;48.296;16.416;2022-11-18T02:00:16;52.40;;;28.42;;
75926;SDS011;64605;48.296;16.416;2022-11-18T02:02:41;54.70;;;29.75;;
75926;SDS011;64605;48.296;16.416;2022-11-18T02:05:07;50.25;;;27.73;;
75926;SDS011;64605;48.296;16.416;2022-11-18T02:07:36;56.00;;;29.35;;
75926;SDS011;64605;48.296;16.416;2022-11-18T02:10:06;62.35;;;30.83;;
75926;SDS011;64605;48.296;16.416;2022-11-18T02:12:33;59.08;;;32.13;;
75926;SDS011;64605;48.296;16.416;2022-11-18T02:15:00;56.72;;;30.00;;
75926;SDS011;64605;48.296;16.416;2022-11-18T02:17:47;65.20;;;33.63;;
75926;SDS011;64605;48.296;16.416;2022-11-18T02:20:29;54.20;;;27.80;;
75926;SDS011;64605;48.296;16.416;2022-11-18T02:39:04;49.45;;;26.58;;
75926;SDS011;64605;48.296;16.416;2022-11-18T02:41:36;53.78;;;27.75;;
75926;SDS011;64605;48.296;16.416;2022-11-18T02:44:14;50.88;;;28.58;;
75926;SDS011;64605;48.296;16.416;2022-11-18T02:46:42;44.45;;;25.98;;
75926;SDS011;64605;48.296;16.416;2022-11-18T02:52:07;46.10;;;25.90;;
75926;SDS011;64605;48.296;16.416;2022-11-18T02:54:36;46.92;;;26.45;;
75926;SDS011;64605;48.296;16.416;2022-11-18T02:57:05;46.70;;;26.77;;
75926;SDS011;64605;48.296;16.416;2022-11-18T02:59:32;47.88;;;25.90;;
75926;SDS011;64605;48.296;16.416;2022-11-18T03:01:58;42.58;;;26.77;;
75926;SDS011;64605;48.296;16.416;2022-11-18T03:04:24;59.42;;;29.10;;
75926;SDS011;64605;48.296;16.416;2022-11-18T03:07:15;43.20;;;26.55;;
75926;SDS011;64605;48.296;16.416;2022-11-18T03:09:43;46.78;;;27.63;;
75926;SDS011;64605;48.296;16.416;2022-11-18T03:20:28;48.17;;;28.77;;
75926;SDS011;64605;48.296;16.416;2022-11-18T03:25:53;47.38;;;26.77;;
75926;SDS011;64605;48.296;16.416;2022-11-18T03:31:23;42.92;;;25.77;;
75926;SDS011;64605;48.296;16.416;2022-11-18T03:33:55;52.83;;;28.15;;
75926;SDS011;64605;48.296;16.416;2022-11-18T03:36:40;46.50;;;26.42;;
75926;SDS011;64605;48.296;16.416;2022-11-18T03:39:14;39.63;;;25.52;;
75926;SDS011;64605;48.296;16.416;2022-11-18T03:41:43;40.88;;;25.33;;
75926;SDS011;64605;48.296;16.416;2022-11-18T03:44:16;54.22;;;28.38;;
75926;SDS011;64605;48.296;16.416;2022-11-18T03:46:46;53.38;;;28.23;;
75926;SDS011;64605;48.296;16.416;2022-11-18T03:49:21;50.08;;;28.90;;
75926;SDS011;64605;48.296;16.416;2022-11-18T03:51:55;52.72;;;27.20;;
75926;SDS011;64605;48.296;16.416;2022-11-18T03:54:25;46.50;;;26.23;;
75926;SDS011;64605;48.296;16.416;2022-11-18T03:56:57;45.67;;;26.42;;
75926;SDS011;64605;48.296;16.416;2022-11-18T03:59:29;51.05;;;27.13;;
75926;SDS011;64605;48.296;16.416;2022-11-18T04:02:07;46.40;;;25.83;;
75926;SDS011;64605;48.296;16.416;2022-11-18T04:04:38;47.28;;;27.20;;
75926;SDS011;64605;48.296;16.416;2022-11-18T04:07:21;51.20;;;27.20;;
75926;SDS011;64605;48.296;16.416;2022-11-18T04:10:12;46.97;;;26.00;;
75926;SDS011;64605;48.296;16.416;2022-11-18T04:12:43;50.95;;;26.67;;
75926;SDS011;64605;48.296;16.416;2022-11-18T04:15:16;47.67;;;25.92;;
75926;SDS011;64605;48.296;16.416;2022-11-18T04:17:43;48.50;;;26.77;;
75926;SDS011;64605;48.296;16.416;2022-11-18T04:20:29;54.85;;;30.00;;
75926;SDS011;64605;48.296;16.416;2022-11-18T04:22:56;48.70;;;27.75;;
75926;SDS011;64605;48.296;16.416;2022-11-18T04:25:22;52.03;;;26.92;;
75926;SDS011;64605;48.296;16.416;2022-11-18T04:27:48;45.70;;;25.15;;
75926;SDS011;64605;48.296;16.416;2022-11-18T04:30:14;44.30;;;25.50;;
75926;SDS011;64605;48.296;16.416;2022-11-18T04:32:40;51.45;;;26.83;;
75926;SDS011;64605;48.296;16.416;2022-11-18T04:35:06;48.45;;;25.85;;
75926;SDS011;64605;48.296;16.416;2022-11-18T04:37:32;46.80;;;25.42;;
75926;SDS011;64605;48.296;16.416;2022-11-18T04:39:58;51.47;;;27.70;;
75926;SDS011;64605;48.296;16.416;2022-11-18T04:42:23;49.15;;;24.85;;
75926;SDS011;64605;48.296;16.416;2022-11-18T04:44:49;51.20;;;26.38;;
75926;SDS011;64605;48.296;16.416;2022-11-18T04:47:15;50.85;;;25.92;;
75926;SDS011;64605;48.296;16.416;2022-11-18T04:49:41;46.30;;;22.95;;
75926;SDS011;64605;48.296;16.416;2022-11-18T04:52:06;47.35;;;23.60;;
75926;SDS011;64605;48.296;16.416;2022-11-18T04:54:32;41.88;;;23.95;;
75926;SDS011;64605;48.296;16.416;2022-11-18T04:56:58;46.22;;;23.25;;
75926;SDS011;64605;48.296;16.416;2022-11-18T04:59:24;48.05;;;23.75;;
75926;SDS011;64605;48.296;16.416;2022-11-18T05:01:52;42.45;;;23.83;;
75926;SDS011;64605;48.296;16.416;2022-11-18T05:04:20;42.67;;;22.17;;
75926;SDS011;64605;48.296;16.416;2022-11-18T05:06:51;40.47;;;22.58;;
75926;SDS011;64605;48.296;16.416;2022-11-18T05:09:17;51.45;;;25.83;;
75926;SDS011;64605;48.296;16.416;2022-11-18T05:11:43;48.15;;;24.30;;
75926;SDS011;64605;48.296;16.416;2022-11-18T05:14:28;58.78;;;27.50;;
75926;SDS011;64605;48.296;16.416;2022-11-18T05:16:54;47.53;;;24.83;;
75926;SDS011;64605;48.296;16.416;2022-11-18T05:19:21;50.13;;;25.92;;
75926;SDS011;64605;48.296;16.416;2022-11-18T05:21:47;58.10;;;25.38;;
75926;SDS011;64605;48.296;16.416;2022-11-18T05:24:13;52.45;;;25.70;;
75926;SDS011;64605;48.296;16.416;2022-11-18T05:26:39;47.95;;;24.67;;
75926;SDS011;64605;48.296;16.416;2022-11-18T05:29:04;47.67;;;24.92;;
75926;SDS011;64605;48.296;16.416;2022-11-18T05:31:30;47.72;;;23.67;;
75926;SDS011;64605;48.296;16.416;2022-11-18T05:33:56;47.42;;;24.67;;
75926;SDS011;64605;48.296;16.416;2022-11-18T05:36:22;44.80;;;23.40;;
75926;SDS011;64605;48.296;16.416;2022-11-18T05:38:48;48.97;;;24.73;;
75926;SDS011;64605;48.296;16.416;2022-11-18T05:41:14;43.15;;;23.50;;
75926;SDS011;64605;48.296;16.416;2022-11-18T05:43:59;40.95;;;21.25;;
75926;SDS011;64605;48.296;16.416;2022-11-18T05:46:25;46.17;;;23.42;;
75926;SDS011;64605;48.296;16.416;2022-11-18T05:48:52;44.40;;;22.73;;
75926;SDS011;64605;48.296;16.416;2022-11-18T05:51:17;45.85;;;23.10;;
75926;SDS011;64605;48.296;16.416;2022-11-18T05:53:43;47.22;;;23.05;;
75926;SDS011;64605;48.296;16.416;2022-11-18T05:56:18;48.95;;;23.05;;
75926;SDS011;64605;48.296;16.416;2022-11-18T05:58:46;47.72;;;23.83;;
75926;SDS011;64605;48.296;16.416;2022-11-18T06:01:13;50.00;;;25.27;;
75926;SDS011;64605;48.296;16.416;2022-11-18T06:03:44;50.53;;;26.27;;
75926;SDS011;64605;48.296;16.416;2022-11-18T06:06:09;50.35;;;25.73;;
75926;SDS011;64605;48.296;16.416;2022-11-18T06:08:40;46.90;;;25.77;;
75926;SDS011;64605;48.296;16.416;2022-11-18T06:11:31;54.67;;;27.20;;
75926;SDS011;64605;48.296;16.416;2022-11-18T06:14:08;57.72;;;28.85;;
75926;SDS011;64605;48.296;16.416;2022-11-18T06:16:41;61.20;;;28.70;;
75926;SDS011;64605;48.296;16.416;2022-11-18T06:19:09;66.43;;;30.92;;
75926;SDS011;64605;48.296;16.416;2022-11-18T06:21:35;55.80;;;28.90;;
75926;SDS011;64605;48.296;16.416;2022-11-18T06:24:01;55.53;;;27.55;;
75926;SDS011;64605;48.296;16.416;2022-11-18T06:26:26;55.40;;;26.88;;
75926;SDS011;64605;48.296;16.416;2022-11-18T06:28:52;46.22;;;25.98;;
75926;SDS011;64605;48.296;16.416;2022-11-18T06:31:19;47.78;;;25.60;;
75926;SDS011;64605;48.296;16.416;2022-11-18T06:33:45;50.42;;;26.73;;
75926;SDS011;64605;48.296;16.416;2022-11-18T06:36:10;62.10;;;28.10;;
75926;SDS011;64605;48.296;16.416;2022-11-18T06:38:36;47.60;;;24.33;;
75926;SDS011;64605;48.296;16.416;2022-11-18T06:41:02;54.35;;;26.42;;
75926;SDS011;64605;48.296;16.416;2022-11-18T06:43:27;54.22;;;26.73;;
75926;SDS011;64605;48.296;16.416;2022-11-18T06:46:10;48.22;;;25.67;;
75926;SDS011;64605;48.296;16.416;2022-11-18T06:48:57;52.33;;;27.65;;
75926;SDS011;64605;48.296;16.416;2022-11-18T06:51:23;49.22;;;23.45;;
75926;SDS011;64605;48.296;16.416;2022-11-18T06:53:49;47.90;;;24.23;;
75926;SDS011;64605;48.296;16.416;2022-11-18T06:56:15;58.88;;;24.73;;
75926;SDS011;64605;48.296;16.416;2022-11-18T06:58:42;48.58;;;25.38;;
75926;SDS011;64605;48.296;16.416;2022-11-18T07:01:09;53.83;;;25.10;;
75926;SDS011;64605;48.296;16.416;2022-11-18T07:03:36;42.70;;;21.20;;
75926;SDS011;64605;48.296;16.416;2022-11-18T07:06:02;42.63;;;21.35;;
75926;SDS011;64605;48.296;16.416;2022-11-18T07:08:28;44.17;;;21.52;;
75926;SDS011;64605;48.296;16.416;2022-11-18T07:10:53;52.17;;;23.63;;
75926;SDS011;64605;48.296;16.416;2022-11-18T07:13:19;39.17;;;19.98;;
75926;SDS011;64605;48.296;16.416;2022-11-18T07:15:44;42.20;;;20.48;;
75926;SDS011;64605;48.296;16.416;2022-11-18T07:18:10;39.53;;;20.60;;
75926;SDS011;64605;48.296;16.416;2022-11-18T07:20:36;42.85;;;20.23;;
75926;SDS011;64605;48.296;16.416;2022-11-18T07:23:01;39.70;;;20.42;;
75926;SDS011;64605;48.296;16.416;2022-11-18T07:25:27;47.03;;;22.17;;
75926;SDS011;64605;48.296;16.416;2022-11-18T07:27:52;49.85;;;24.90;;
75926;SDS011;64605;48.296;16.416;2022-11-18T07:30:18;47.50;;;22.90;;
75926;SDS011;64605;48.296;16.416;2022-11-18T07:32:44;47.47;;;22.17;;
75926;SDS011;64605;48.296;16.416;2022-11-18T07:35:09;38.67;;;18.23;;
75926;SDS011;64605;48.296;16.416;2022-11-18T07:37:35;43.08;;;19.30;;
75926;SDS011;64605;48.296;16.416;2022-11-18T07:40:00;42.28;;;20.45;;
75926;SDS011;64605;48.296;16.416;2022-11-18T07:42:26;40.65;;;18.83;;
75926;SDS011;64605;48.296;16.416;2022-11-18T07:44:52;37.28;;;17.02;;
75926;SDS011;64605;48.296;16.416;2022-11-18T07:47:17;34.03;;;16.95;;
75926;SDS011;64605;48.296;16.416;2022-11-18T07:49:43;36.20;;;18.40;;
75926;SDS011;64605;48.296;16.416;2022-11-18T07:52:09;38.10;;;18.90;;
75926;SDS011;64605;48.296;16.416;2022-11-18T07:54:34;39.97;;;21.27;;
75926;SDS011;64605;48.296;16.416;2022-11-18T07:57:00;42.65;;;20.85;;
75926;SDS011;64605;48.296;16.416;2022-11-18T07:59:25;39.20;;;17.23;;
75926;SDS011;64605;48.296;16.416;2022-11-18T08:01:51;35.67;;;19.08;;
75926;SDS011;64605;48.296;16.416;2022-11-18T08:04:17;40.90;;;22.90;;
75926;SDS011;64605;48.296;16.416;2022-11-18T08:06:42;33.47;;;18.42;;
75926;SDS011;64605;48.296;16.416;2022-11-18T08:09:08;27.42;;;15.65;;
75926;SDS011;64605;48.296;16.416;2022-11-18T08:11:34;29.08;;;19.05;;
75926;SDS011;64605;48.296;16.416;2022-11-18T08:14:00;30.00;;;17.27;;
75926;SDS011;64605;48.296;16.416;2022-11-18T08:16:26;30.38;;;16.58;;
75926;SDS011;64605;48.296;16.416;2022-11-18T08:18:52;33.30;;;18.00;;
75926;SDS011;64605;48.296;16.416;2022-11-18T08:21:19;35.67;;;19.92;;
75926;SDS011;64605;48.296;16.416;2022-11-18T08:23:52;34.08;;;18.77;;
75926;SDS011;64605;48.296;16.416;2022-11-18T08:26:20;37.90;;;19.63;;
75926;SDS011;64605;48.296;16.416;2022-11-18T08:28:46;36.60;;;19.48;;
75926;SDS011;64605;48.296;16.416;2022-11-18T08:31:14;43.03;;;23.85;;
75926;SDS011;64605;48.296;16.416;2022-11-18T08:33:42;42.42;;;23.58;;
75926;SDS011;64605;48.296;16.416;2022-11-18T08:36:15;52.78;;;25.40;;
75926;SDS011;64605;48.296;16.416;2022-11-18T08:38:45;43.20;;;22.63;;
75926;SDS011;64605;48.296;16.416;2022-11-18T08:41:15;45.13;;;25.08;;
75926;SDS011;64605;48.296;16.416;2022-11-18T08:43:43;40.07;;;23.03;;
75926;SDS011;64605;48.296;16.416;2022-11-18T08:46:09;37.03;;;21.20;;
75926;SDS011;64605;48.296;16.416;2022-11-18T08:48:35;38.72;;;21.67;;
75926;SDS011;64605;48.296;16.416;2022-11-18T08:51:00;41.17;;;21.30;;
75926;SDS011;64605;48.296;16.416;2022-11-18T08:53:26;34.50;;;18.80;;
75926;SDS011;64605;48.296;16.416;2022-11-18T08:55:58;32.92;;;18.98;;
75926;SDS011;64605;48.296;16.416;2022-11-18T08:58:25;33.60;;;18.80;;
75926;SDS011;64605;48.296;16.416;2022-11-18T09:00:51;34.90;;;18.48;;
75926;SDS011;64605;48.296;16.416;2022-11-18T09:03:17;35.70;;;19.88;;
75926;SDS011;64605;48.296;16.416;2022-11-18T09:05:43;33.17;;;18.33;;
75926;SDS011;64605;48.296;16.416;2022-11-18T09:08:09;31.30;;;17.70;;
75926;SDS011;64605;48.296;16.416;2022-11-18T09:10:35;36.40;;;20.83;;
75926;SDS011;64605;48.296;16.416;2022-11-18T09:13:02;42.95;;;23.08;;
75926;SDS011;64605;48.296;16.416;2022-11-18T09:15:28;37.50;;;20.52;;
75926;SDS011;64605;48.296;16.416;2022-11-18T09:17:57;32.92;;;18.00;;
75926;SDS011;64605;48.296;16.416;2022-11-18T09:20:23;32.35;;;18.58;;
75926;SDS011;64605;48.296;16.416;2022-11-18T09:22:49;31.90;;;18.48;;
75926;SDS011;64605;48.296;16.416;2022-11-18T09:25:15;32.60;;;18.17;;
75926;SDS011;64605;48.296;16.416;2022-11-18T09:27:40;28.50;;;16.42;;
75926;SDS011;64605;48.296;16.416;2022-11-18T09:30:06;25.92;;;16.83;;
75926;SDS011;64605;48.296;16.416;2022-11-18T09:32:33;23.45;;;15.85;;
75926;SDS011;64605;48.296;16.416;2022-11-18T09:34:58;25.00;;;16.10;;
75926;SDS011;64605;48.296;16.416;2022-11-18T09:37:24;25.40;;;15.90;;
75926;SDS011;64605;48.296;16.416;2022-11-18T09:39:50;27.67;;;17.10;;
75926;SDS011;64605;48.296;16.416;2022-11-18T09:45:11;33.03;;;18.42;;
75926;SDS011;64605;48.296;16.416;2022-11-18T09:47:43;35.45;;;19.50;;
75926;SDS011;64605;48.296;16.416;2022-11-18T09:50:19;38.63;;;21.13;;
75926;SDS011;64605;48.296;16.416;2022-11-18T09:55:50;36.08;;;20.48;;
75926;SDS011;64605;48.296;16.416;2022-11-18T09:58:32;31.55;;;18.73;;
75926;SDS011;64605;48.296;16.416;2022-11-18T10:01:00;33.85;;;17.98;;
75926;SDS011;64605;48.296;16.416;2022-11-18T10:03:30;31.10;;;17.52;;
75926;SDS011;64605;48.296;16.416;2022-11-18T10:11:37;24.55;;;15.30;;
75926;SDS011;64605;48.296;16.416;2022-11-18T10:14:14;27.27;;;15.18;;
75926;SDS011;64605;48.296;16.416;2022-11-18T10:16:59;24.27;;;13.60;;
75926;SDS011;64605;48.296;16.416;2022-11-18T10:19:33;16.33;;;9.70;;
75926;SDS011;64605;48.296;16.416;2022-11-18T10:22:18;15.40;;;9.18;;
75926;SDS011;64605;48.296;16.416;2022-11-18T10:25:06;14.93;;;9.38;;
75926;SDS011;64605;48.296;16.416;2022-11-18T10:27:40;17.98;;;10.68;;
75926;SDS011;64605;48.296;16.416;2022-11-18T10:30:14;20.23;;;12.30;;
75926;SDS011;64605;48.296;16.416;2022-11-18T10:33:00;21.60;;;13.57;;
75926;SDS011;64605;48.296;16.416;2022-11-18T10:35:29;21.73;;;13.27;;
75926;SDS011;64605;48.296;16.416;2022-11-18T10:38:08;25.15;;;14.18;;
75926;SDS011;64605;48.296;16.416;2022-11-18T10:46:24;25.02;;;14.80;;
75926;SDS011;64605;48.296;16.416;2022-11-18T10:51:32;23.70;;;14.65;;
75926;SDS011;64605;48.296;16.416;2022-11-18T10:54:10;27.40;;;15.32;;
75926;SDS011;64605;48.296;16.416;2022-11-18T10:59:28;17.92;;;12.65;;
75926;SDS011;64605;48.296;16.416;2022-11-18T11:01:57;18.05;;;11.38;;
75926;SDS011;64605;48.296;16.416;2022-11-18T11:04:25;17.08;;;10.23;;
75926;SDS011;64605;48.296;16.416;2022-11-18T11:06:52;18.80;;;11.27;;
75926;SDS011;64605;48.296;16.416;2022-11-18T11:17:12;15.50;;;10.25;;
75926;SDS011;64605;48.296;16.416;2022-11-18T11:19:45;16.38;;;11.10;;
75926;SDS011;64605;48.296;16.416;2022-11-18T11:22:16;17.48;;;10.75;;
75926;SDS011;64605;48.296;16.416;2022-11-18T11:24:42;15.10;;;11.05;;
75926;SDS011;64605;48.296;16.416;2022-11-18T11:33:00;22.35;;;14.85;;
75926;SDS011;64605;48.296;16.416;2022-11-18T11:40:54;16.30;;;11.13;;
75926;SDS011;64605;48.296;16.416;2022-11-18T11:48:51;13.00;;;9.25;;
75926;SDS011;64605;48.296;16.416;2022-11-18T11:56:45;13.55;;;9.27;;
75926;SDS011;64605;48.296;16.416;2022-11-18T12:07:28;13.65;;;9.88;;
75926;SDS011;64605;48.296;16.416;2022-11-18T12:10:43;17.48;;;12.15;;
75926;SDS011;64605;48.296;16.416;2022-11-18T12:18:38;28.25;;;20.08;;
75926;SDS011;64605;48.296;16.416;2022-11-18T12:27:00;23.98;;;15.75;;
75926;SDS011;64605;48.296;16.416;2022-11-18T12:29:39;24.27;;;15.20;;
75926;SDS011;64605;48.296;16.416;2022-11-18T12:40:36;21.50;;;13.82;;
75926;SDS011;64605;48.296;16.416;2022-11-18T12:46:07;25.70;;;15.57;;
75926;SDS011;64605;48.296;16.416;2022-11-18T12:48:37;23.65;;;14.43;;
75926;SDS011;64605;48.296;16.416;2022-11-18T12:56:09;22.40;;;14.02;;
75926;SDS011;64605;48.296;16.416;2022-11-18T12:58:43;18.53;;;11.87;;
75926;SDS011;64605;48.296;16.416;2022-11-18T13:01:10;18.00;;;11.05;;
75926;SDS011;64605;48.296;16.416;2022-11-18T13:03:37;13.30;;;8.43;;
75926;SDS011;64605;48.296;16.416;2022-11-18T13:06:13;15.10;;;9.45;;
75926;SDS011;64605;48.296;16.416;2022-11-18T13:08:43;12.20;;;7.95;;
75926;SDS011;64605;48.296;16.416;2022-11-18T13:11:16;15.65;;;9.07;;
75926;SDS011;64605;48.296;16.416;2022-11-18T13:14:01;13.15;;;8.27;;
75926;SDS011;64605;48.296;16.416;2022-11-18T13:16:48;16.02;;;9.63;;
75926;SDS011;64605;48.296;16.416;2022-11-18T13:19:52;15.35;;;9.15;;
75926;SDS011;64605;48.296;16.416;2022-11-18T13:22:20;15.48;;;9.05;;
75926;SDS011;64605;48.296;16.416;2022-11-18T13:25:04;15.13;;;9.45;;
75926;SDS011;64605;48.296;16.416;2022-11-18T13:30:13;16.92;;;9.23;;
75926;SDS011;64605;48.296;16.416;2022-11-18T13:32:44;15.13;;;9.82;;
75926;SDS011;64605;48.296;16.416;2022-11-18T13:37:58;14.80;;;9.77;;
75926;SDS011;64605;48.296;16.416;2022-11-18T13:40:26;14.10;;;9.77;;
75926;SDS011;64605;48.296;16.416;2022-11-18T13:42:53;18.30;;;10.73;;
75926;SDS011;64605;48.296;16.416;2022-11-18T13:45:18;14.07;;;10.13;;
75926;SDS011;64605;48.296;16.416;2022-11-18T13:47:48;14.98;;;9.32;;
75926;SDS011;64605;48.296;16.416;2022-11-18T13:55:53;18.20;;;11.20;;
75926;SDS011;64605;48.296;16.416;2022-11-18T14:01:24;14.25;;;9.10;;
75926;SDS011;64605;48.296;16.416;2022-11-18T14:04:04;12.68;;;8.30;;
75926;SDS011;64605;48.296;16.416;2022-11-18T14:06:41;11.88;;;8.18;;
75926;SDS011;64605;48.296;16.416;2022-11-18T14:14:37;8.20;;;6.28;;
75926;SDS011;64605;48.296;16.416;2022-11-18T14:17:21;11.30;;;7.20;;
75926;SDS011;64605;48.296;16.416;2022-11-18T14:19:54;9.10;;;7.10;;
75926;SDS011;64605;48.296;16.416;2022-11-18T14:22:28;8.40;;;6.60;;
75926;SDS011;64605;48.296;16.416;2022-11-18T14:30:00;11.68;;;9.43;;
75926;SDS011;64605;48.296;16.416;2022-11-18T14:33:02;13.23;;;9.48;;
75926;SDS011;64605;48.296;16.416;2022-11-18T14:35:33;10.05;;;8.40;;
75926;SDS011;64605;48.296;16.416;2022-11-18T14:37:59;13.27;;;11.35;;
75926;SDS011;64605;48.296;16.416;2022-11-18T14:40:25;14.15;;;12.05;;
75926;SDS011;64605;48.296;16.416;2022-11-18T14:42:50;14.88;;;12.32;;
75926;SDS011;64605;48.296;16.416;2022-11-18T14:45:16;18.98;;;12.95;;
75926;SDS011;64605;48.296;16.416;2022-11-18T14:47:41;15.73;;;13.25;;
75926;SDS011;64605;48.296;16.416;2022-11-18T14:50:11;17.38;;;14.65;;
75926;SDS011;64605;48.296;16.416;2022-11-18T14:52:37;16.85;;;13.10;;
75926;SDS011;64605;48.296;16.416;2022-11-18T14:55:03;16.83;;;13.45;;
75926;SDS011;64605;48.296;16.416;2022-11-18T14:57:29;19.88;;;15.07;;
75926;SDS011;64605;48.296;16.416;2022-11-18T14:59:54;15.60;;;12.30;;
75926;SDS011;64605;48.296;16.416;2022-11-18T15:02:20;11.82;;;9.70;;
75926;SDS011;64605;48.296;16.416;2022-11-18T15:04:46;13.15;;;10.73;;
75926;SDS011;64605;48.296;16.416;2022-11-18T15:07:12;13.20;;;11.25;;
75926;SDS011;64605;48.296;16.416;2022-11-18T15:09:39;15.15;;;11.57;;
75926;SDS011;64605;48.296;16.416;2022-11-18T15:12:06;18.70;;;12.38;;
75926;SDS011;64605;48.296;16.416;2022-11-18T15:14:31;14.13;;;10.55;;
75926;SDS011;64605;48.296;16.416;2022-11-18T15:16:59;14.77;;;11.25;;
75926;SDS011;64605;48.296;16.416;2022-11-18T15:19:25;13.13;;;11.18;;
75926;SDS011;64605;48.296;16.416;2022-11-18T15:21:51;14.35;;;10.98;;
75926;SDS011;64605;48.296;16.416;2022-11-18T15:24:16;14.27;;;10.35;;
75926;SDS011;64605;48.296;16.416;2022-11-18T15:26:43;13.68;;;10.25;;
75926;SDS011;64605;48.296;16.416;2022-11-18T15:29:15;13.15;;;10.63;;
75926;SDS011;64605;48.296;16.416;2022-11-18T15:31:42;14.77;;;11.10;;
75926;SDS011;64605;48.296;16.416;2022-11-18T15:34:08;17.67;;;12.95;;
75926;SDS011;64605;48.296;16.416;2022-11-18T15:36:33;16.85;;;13.70;;
75926;SDS011;64605;48.296;16.416;2022-11-18T15:38:59;21.30;;;14.40;;
75926;SDS011;64605;48.296;16.416;2022-11-18T15:41:25;19.27;;;13.07;;
75926;SDS011;64605;48.296;16.416;2022-11-18T15:43:53;17.95;;;11.85;;
75926;SDS011;64605;48.296;16.416;2022-11-18T15:46:20;15.10;;;11.57;;
75926;SDS011;64605;48.296;16.416;2022-11-18T15:48:50;18.45;;;13.85;;
75926;SDS011;64605;48.296;16.416;2022-11-18T15:51:16;14.43;;;11.23;;
75926;SDS011;64605;48.296;16.416;2022-11-18T15:53:42;16.70;;;12.43;;
75926;SDS011;64605;48.296;16.416;2022-11-18T15:58:43;15.32;;;11.93;;
75926;SDS011;64605;48.296;16.416;2022-11-18T16:01:09;16.35;;;12.43;;
75926;SDS011;64605;48.296;16.416;2022-11-18T16:03:35;13.75;;;10.70;;
75926;SDS011;64605;48.296;16.416;2022-11-18T16:06:01;15.23;;;11.95;;
75926;SDS011;64605;48.296;16.416;2022-11-18T16:08:28;15.27;;;10.88;;
75926;SDS011;64605;48.296;16.416;2022-11-18T16:10:54;16.02;;;12.13;;
75926;SDS011;64605;48.296;16.416;2022-11-18T16:13:39;16.13;;;12.43;;
75926;SDS011;64605;48.296;16.416;2022-11-18T16:16:05;15.40;;;12.52;;
75926;SDS011;64605;48.296;16.416;2022-11-18T16:18:30;16.92;;;12.98;;
75926;SDS011;64605;48.296;16.416;2022-11-18T16:20:59;17.45;;;11.70;;
75926;SDS011;64605;48.296;16.416;2022-11-18T16:23:25;15.32;;;12.05;;
75926;SDS011;64605;48.296;16.416;2022-11-18T16:25:54;17.20;;;12.20;;
75926;SDS011;64605;48.296;16.416;2022-11-18T16:28:19;17.95;;;13.90;;
75926;SDS011;64605;48.296;16.416;2022-11-18T16:30:48;17.30;;;11.77;;
75926;SDS011;64605;48.296;16.416;2022-11-18T16:33:32;16.08;;;12.32;;
75926;SDS011;64605;48.296;16.416;2022-11-18T16:35:58;20.30;;;14.18;;
75926;SDS011;64605;48.296;16.416;2022-11-18T16:38:24;16.27;;;13.25;;
75926;SDS011;64605;48.296;16.416;2022-11-18T16:40:56;20.05;;;13.55;;
75926;SDS011;64605;48.296;16.416;2022-11-18T16:43:23;17.77;;;12.70;;
75926;SDS011;64605;48.296;16.416;2022-11-18T16:45:52;19.13;;;13.63;;
75926;SDS011;64605;48.296;16.416;2022-11-18T16:48:19;23.00;;;15.73;;
75926;SDS011;64605;48.296;16.416;2022-11-18T16:50:50;17.48;;;13.70;;
75926;SDS011;64605;48.296;16.416;2022-11-18T16:53:25;18.88;;;14.05;;
75926;SDS011;64605;48.296;16.416;2022-11-18T16:55:51;21.95;;;17.58;;
75926;SDS011;64605;48.296;16.416;2022-11-18T16:58:17;24.42;;;17.83;;